Time;durP1;ratioP1;P1;durP2;ratioP2;P2;SDS_P1;SDS_P2;PMS_P1;PMS_P2;Temp;Humidity;BMP_temperature;BMP_pressure;BME280_temperature;BME280_humidity;BME280_pressure;Samples;Min_cycle;Max_cycle;Signal;HPM_P1;HPM_P2
2023/09/08 07:03:03;;;;;;;7.32;6.20;;;;;;;;;;10488922;28;20147;-84
2023/09/08 07:14:15;;;;;;;9.18;5.43;;;;;;;;;;10516074;28;20045;-83
2023/09/08 07:25:29;;;;;;;6.47;5.28;;;;;;;;;;10517823;28;20106;-83
2023/09/08 07:31:25;;;;;;;12.77;5.68;;;;;;;;;;10387159;28;20116;-83
2023/09/08 07:48:31;;;;;;;6.15;5.55;;;;;;;;;;10385509;28;20030;-84
2023/09/08 08:16:49;;;;;;;7.47;4.63;;;;;;;;;;10344144;28;20572;-86
2023/09/08 09:01:45;;;;;;;7.90;5.32;;;;;;;;;;10087638;29;20025;-86
2023/09/08 09:13:02;;;;;;;8.20;5.38;;;;;;;;;;10141638;29;20032;-86
2023/09/08 09:18:45;;;;;;;5.95;5.18;;;;;;;;;;10146994;29;20053;-86
2023/09/08 09:24:28;;;;;;;8.95;5.57;;;;;;;;;;10121278;29;20032;-85
2023/09/08 09:29:30;;;;;;;6.07;5.47;;;;;;;;;;10300859;28;20105;-85
2023/09/08 09:40:40;;;;;;;9.90;7.75;;;;;;;;;;10344466;28;20094;-85
2023/09/08 09:46:10;;;;;;;8.38;6.22;;;;;;;;;;10456749;28;20404;-84
2023/09/08 09:51:18;;;;;;;8.40;6.00;;;;;;;;;;10492370;28;20041;-86
2023/09/08 09:56:30;;;;;;;6.60;5.45;;;;;;;;;;10466971;28;20037;-85
2023/09/08 10:01:38;;;;;;;6.63;5.00;;;;;;;;;;10469277;28;20124;-86
2023/09/08 10:06:52;;;;;;;6.38;4.78;;;;;;;;;;10467220;28;20561;-86
2023/09/08 10:12:31;;;;;;;6.40;5.70;;;;;;;;;;10463352;28;20036;-86
2023/09/08 10:17:55;;;;;;;6.07;5.10;;;;;;;;;;10469197;28;20033;-86
2023/09/08 10:23:44;;;;;;;6.10;5.45;;;;;;;;;;10467768;28;20515;-85
2023/09/08 10:29:01;;;;;;;5.47;4.93;;;;;;;;;;10404620;28;20045;-85
2023/09/08 10:34:22;;;;;;;8.50;5.00;;;;;;;;;;10462428;28;20048;-85
2023/09/08 10:39:41;;;;;;;6.18;5.47;;;;;;;;;;10491032;28;20033;-86
2023/09/08 10:50:47;;;;;;;5.22;4.72;;;;;;;;;;10477828;28;20017;-86
2023/09/08 11:01:46;;;;;;;6.35;5.20;;;;;;;;;;10475239;28;20528;-87
2023/09/08 11:07:13;;;;;;;7.60;5.85;;;;;;;;;;10469291;28;20061;-85
2023/09/08 11:18:36;;;;;;;6.78;4.82;;;;;;;;;;10476294;28;20144;-86
2023/09/08 11:29:40;;;;;;;6.07;4.82;;;;;;;;;;10471657;28;20102;-86
2023/09/08 11:35:28;;;;;;;6.10;5.50;;;;;;;;;;10469896;28;20491;-86
2023/09/08 11:40:47;;;;;;;5.43;4.95;;;;;;;;;;10468455;28;20041;-86
2023/09/08 11:46:30;;;;;;;5.65;5.15;;;;;;;;;;10388431;28;20089;-85
2023/09/08 11:52:10;;;;;;;6.07;4.97;;;;;;;;;;10371898;28;20564;-84
2023/09/08 11:57:16;;;;;;;4.97;4.30;;;;;;;;;;10355415;28;20046;-84
2023/09/08 12:02:48;;;;;;;4.90;4.40;;;;;;;;;;10391072;28;20026;-85
2023/09/08 12:07:56;;;;;;;5.03;4.53;;;;;;;;;;10469553;28;20516;-85
2023/09/08 12:48:01;;;;;;;5.60;5.10;;;;;;;;;;10472548;28;20185;-86
2023/09/08 12:53:23;;;;;;;5.10;4.60;;;;;;;;;;10339480;28;20118;-86
2023/09/08 13:10:05;;;;;;;6.90;4.38;;;;;;;;;;10336146;28;20018;-86
2023/09/08 13:33:10;;;;;;;6.82;4.70;;;;;;;;;;10142815;29;20033;-86
2023/09/08 13:38:50;;;;;;;5.85;4.40;;;;;;;;;;10083829;29;20076;-86
2023/09/08 13:44:30;;;;;;;7.65;4.50;;;;;;;;;;10057180;29;20098;-83
2023/09/08 13:49:31;;;;;;;6.13;4.68;;;;;;;;;;10128979;29;20083;-82
2023/09/08 13:55:11;;;;;;;5.70;5.13;;;;;;;;;;10164991;28;20067;-83
2023/09/08 14:00:14;;;;;;;5.25;4.63;;;;;;;;;;10290120;28;20045;-82
2023/09/08 14:16:30;;;;;;;5.10;4.55;;;;;;;;;;10432367;28;20038;-82
2023/09/08 14:21:39;;;;;;;5.32;4.82;;;;;;;;;;10396070;28;20044;-80
2023/09/08 14:26:46;;;;;;;8.15;5.30;;;;;;;;;;10429357;28;20436;-81
2023/09/08 14:32:26;;;;;;;6.90;4.90;;;;;;;;;;10429126;28;20033;-80
2023/09/08 14:37:52;;;;;;;6.05;4.75;;;;;;;;;;10402980;28;20053;-82
2023/09/08 14:42:53;;;;;;;5.32;4.82;;;;;;;;;;10459569;28;20036;-84
2023/09/08 14:48:02;;;;;;;6.00;5.25;;;;;;;;;;10462185;28;20424;-83
2023/09/08 14:53:10;;;;;;;5.97;5.38;;;;;;;;;;10477537;28;20052;-84
2023/09/08 14:58:13;;;;;;;6.75;5.05;;;;;;;;;;10456438;28;20040;-84
2023/09/08 15:03:15;;;;;;;6.88;4.78;;;;;;;;;;10473483;28;20033;-84
2023/09/08 15:08:31;;;;;;;6.03;5.38;;;;;;;;;;10456470;28;20056;-84
2023/09/08 15:13:32;;;;;;;6.50;5.30;;;;;;;;;;10474426;28;20447;-84
2023/09/08 15:18:34;;;;;;;5.32;4.60;;;;;;;;;;10455161;28;20075;-84
2023/09/08 15:23:35;;;;;;;6.00;5.32;;;;;;;;;;10452257;28;20037;-84
2023/09/08 15:28:38;;;;;;;6.07;4.90;;;;;;;;;;10471402;28;20067;-84
2023/09/08 15:33:43;;;;;;;5.40;4.90;;;;;;;;;;10486997;28;20029;-84
2023/09/08 15:38:44;;;;;;;5.43;4.93;;;;;;;;;;10499501;28;20104;-83
2023/09/08 15:43:55;;;;;;;6.88;5.10;;;;;;;;;;10506613;28;20056;-83
2023/09/08 15:49:02;;;;;;;6.32;5.72;;;;;;;;;;10496364;28;20013;-84
2023/09/08 15:54:04;;;;;;;7.30;5.28;;;;;;;;;;10494324;28;20037;-84
2023/09/08 15:59:05;;;;;;;7.35;6.60;;;;;;;;;;10469919;28;20503;-81
2023/09/08 16:04:09;;;;;;;5.50;4.90;;;;;;;;;;10467827;28;20068;-81
2023/09/08 16:09:12;;;;;;;5.80;5.20;;;;;;;;;;10468932;28;20408;-81
2023/09/08 16:14:13;;;;;;;6.30;5.47;;;;;;;;;;10466835;28;20119;-81
2023/09/08 16:19:18;;;;;;;6.30;5.70;;;;;;;;;;10475163;28;20033;-85
2023/09/08 16:24:45;;;;;;;6.70;5.28;;;;;;;;;;10451823;28;20047;-88
2023/09/08 16:30:26;;;;;;;6.53;5.50;;;;;;;;;;10461226;28;20037;-85
2023/09/08 16:35:27;;;;;;;6.05;5.45;;;;;;;;;;10465259;28;20037;-84
2023/09/08 16:40:34;;;;;;;5.68;5.18;;;;;;;;;;10469311;28;20152;-82
2023/09/08 16:45:35;;;;;;;5.63;5.13;;;;;;;;;;10467934;28;20048;-82
2023/09/08 16:50:36;;;;;;;7.82;6.50;;;;;;;;;;10470104;28;20041;-82
2023/09/08 16:55:37;;;;;;;6.45;5.78;;;;;;;;;;10471492;28;20091;-82
2023/09/08 17:00:38;;;;;;;5.50;5.00;;;;;;;;;;10473736;28;20044;-82
2023/09/08 17:05:40;;;;;;;7.30;6.63;;;;;;;;;;10496083;28;20546;-82
2023/09/08 17:10:41;;;;;;;8.02;7.22;;;;;;;;;;10472291;28;20040;-82
2023/09/08 17:15:42;;;;;;;5.85;5.25;;;;;;;;;;10466183;28;20044;-83
2023/09/08 17:20:43;;;;;;;7.10;6.05;;;;;;;;;;10465235;28;20041;-82
2023/09/08 17:25:45;;;;;;;8.02;6.57;;;;;;;;;;10464892;28;20037;-83
2023/09/08 17:30:47;;;;;;;7.72;6.97;;;;;;;;;;10465431;28;20037;-83
2023/09/08 17:35:49;;;;;;;8.90;8.02;;;;;;;;;;10463739;28;20041;-83
2023/09/08 17:40:50;;;;;;;6.40;5.80;;;;;;;;;;10463611;28;20029;-83
2023/09/08 17:45:51;;;;;;;6.63;5.88;;;;;;;;;;10464716;28;20032;-83
2023/09/08 17:50:52;;;;;;;7.53;6.82;;;;;;;;;;10465395;28;20182;-83
2023/09/08 17:55:54;;;;;;;7.05;6.35;;;;;;;;;;10465966;28;20114;-83
2023/09/08 18:00:59;;;;;;;5.03;4.60;;;;;;;;;;10465216;28;20106;-83
2023/09/08 18:06:00;;;;;;;5.57;4.93;;;;;;;;;;10466510;28;20092;-82
2023/09/08 18:11:03;;;;;;;5.85;5.15;;;;;;;;;;10464465;28;20045;-83
2023/09/08 18:28:07;;;;;;;9.60;6.80;;;;;;;;;;10428062;28;20052;-88
2023/09/08 19:01:58;;;;;;;15.63;9.82;;;;;;;;;;10433021;28;20045;-89
2023/09/08 19:06:59;;;;;;;14.15;9.18;;;;;;;;;;10424987;28;20045;-88
2023/09/08 19:12:01;;;;;;;18.33;9.85;;;;;;;;;;10420158;28;20037;-88
